Flight Track Log - Related Links

Times and Time Zones

All times are in EDT time to prevent confusion due to time zone crossing. See the CCA4492 flight status page for this flight to view local times or setup timezone preferences in your user account.

Time Position Orientation Groundspeed Altitude Reporting Facility
EDT Latitude Longitude Course Direction KTS MPH feet Rate Location/Type
Sat 07:55:00 AM 32.6135 103.7119 174° South  Level Estimated
Sat 07:56:00 AM 32.5323 103.7215 174° South  Level Estimated
Sat 07:57:00 AM 32.4511 103.7310 174° South  Level Estimated
Sat 07:58:00 AM 32.3699 103.7406 174° South  Level Estimated
Sat 07:59:00 AM 32.2887 103.7501 174° South  Level Estimated
Sat 08:00:00 AM 32.2076 103.7596 174° South  Level Estimated
Sat 08:01:00 AM 32.1264 103.7691 174° South  Level Estimated
Sat 08:02:00 AM 32.0452 103.7786 174° South  Level Estimated
Sat 08:02:35 AM 32.5490 104.1580 174° South 468 539 26,600  Level FlightAware ADS-B
Sat 08:03:00 AM 31.9640 103.7881 174° South  Level Estimated
Sat 08:03:13 AM 32.4670 104.1710 172° South 469 540 26,600  Level FlightAware ADS-B
Sat 08:03:57 AM 32.3730 104.1860 172° South 473 544 26,600  Level FlightAware ADS-B
Sat 08:04:35 AM 32.2900 104.1990 172° South 475 547 26,600  Level FlightAware ADS-B
Sat 08:05:08 AM 32.2170 104.2110 172° South 478 550 26,600  Level FlightAware ADS-B
Sat 08:05:47 AM 32.1300 104.2240 173° South 479 551 26,600  Level FlightAware ADS-B
Sat 08:06:51 AM 31.9890 104.2470 172° South 479 551 26,600 -64 Level FlightAware ADS-B
Sat 08:07:21 AM 31.9240 104.2570 173° South 475 547 26,500 -636 Descending FlightAware ADS-B
Sat 08:07:57 AM 31.8470 104.2690 172° South 468 539 25,900 -975 Descending FlightAware ADS-B
Sat 08:08:41 AM 31.7520 104.2840 172° South 462 532 25,200 -929 Descending FlightAware ADS-B
Sat 08:09:21 AM 31.6680 104.2980 172° South 459 528 24,600 -1,000 Descending FlightAware ADS-B
Sat 08:09:59 AM 31.5880 104.3100 173° South 453 521 23,900 -1,091 Descending FlightAware ADS-B
Sat 08:10:27 AM 31.5300 104.3170 174° South 442 509 23,400 -968 Descending FlightAware ADS-B
Sat 08:11:01 AM 31.4650 104.2990 193° South 420 483 22,900 -533 Descending FlightAware ADS-B
Sat 08:11:57 AM 31.3740 104.2310 213° Southwest 420 483 22,600 -375 Descending FlightAware ADS-B
Sat 08:12:37 AM 31.3080 104.1820 212° Southwest 422 486 22,300 -986 Descending FlightAware ADS-B
Sat 08:13:10 AM 31.2590 104.1440 214° Southwest 420 483 21,400 -1,971 Descending FlightAware ADS-B
Sat 08:13:47 AM 31.1930 104.0950 212° Southwest 419 482 20,000 -2,071 Descending FlightAware ADS-B
Sat 08:14:34 AM 31.1190 104.0400 212° Southwest 406 467 18,500 -1,952 Descending FlightAware ADS-B
Sat 08:15:10 AM 31.0640 103.9980 213° Southwest 402 463 17,300 -2,000 Descending FlightAware ADS-B
Sat 08:15:55 AM 30.9920 103.9440 213° Southwest 392 451 15,800 -2,000 Descending FlightAware ADS-B
Sat 08:16:31 AM 30.9370 103.9030 213° Southwest 379 436 14,600 -2,029 Descending FlightAware ADS-B
Sat 08:17:03 AM 30.8910 103.8680 213° Southwest 368 423 13,500 -2,000 Descending FlightAware ADS-B
Sat 08:17:31 AM 30.8510 103.8380 213° Southwest 357 411 12,600 -1,895 Descending FlightAware ADS-B
Sat 08:18:19 AM 30.7860 103.7900 212° Southwest 343 395 11,100 -1,481 Descending FlightAware ADS-B
Sat 08:18:52 AM 30.7450 103.7590 213° Southwest 316 364 10,600 -1,188 Descending FlightAware ADS-B
Sat 08:19:55 AM 30.6700 103.7040 212° Southwest 295 339 9,200 -1,456 Descending FlightAware ADS-B
Sat 08:20:35 AM 30.6190 103.7010 183° South 286 329 8,100 -1,551 Descending FlightAware ADS-B
Sat 08:21:24 AM 30.5590 103.7290 158° South 280 322 6,900 -1,213 Descending FlightAware ADS-B
Sat 08:22:09 AM 30.5070 103.7530 158° South 256 295 6,200 -815 Descending FlightAware ADS-B
Sat 08:22:45 AM 30.4680 103.7710 158° South 237 273 5,800 -750 Descending FlightAware ADS-B
Sat 08:23:21 AM 30.4310 103.7640 189° South 231 266 5,300 -882 Descending FlightAware ADS-B
Sat 08:23:53 AM 30.3980 103.7510 199° South 219 252 4,800 -385 Descending FlightAware ADS-B
Sat 08:24:39 AM 30.3700 103.7840 135° Southeast 197 227 4,800 -85 Level FlightAware ADS-B
Sat 08:25:04 AM 30.3630 103.8060 110° East 172 198 4,700  Descending FlightAware ADS-B
Sat 08:25:56 AM 30.3710 103.8470 77° East 141 162 4,800 -65 Climbing FlightAware ADS-B
Sat 08:26:37 AM 30.3860 103.8740 57° Northeast 150 173 4,600 -811 Descending FlightAware ADS-B
Sat 08:27:10 AM 30.4080 103.8850 23° Northeast 161 185 3,800 -1,125 Descending FlightAware ADS-B
Sat 08:27:41 AM 30.4290 103.8950 22° Northeast 152 175 3,400 -711 Descending FlightAware ADS-B
Sat 08:28:26 AM 30.4560 103.9070 21° North 131 151 2,900 -732 Descending FlightAware ADS-B
Sat 08:29:03 AM 30.4770 103.9170 22° Northeast 129 148 2,400 -696 Descending FlightAware ADS-B
Sat 08:29:35 AM 30.4940 103.9250 22° Northeast 129 148 2,100 -618 Descending FlightAware ADS-B
Sat 08:30:11 AM 30.5150 103.9350 22° Northeast 133 153 1,700 -652 Descending FlightAware ADS-B
Sat 08:30:21 AM 30.5210 103.9370 16° North 131 151 1,600 -162 Descending FlightAware ADS-B
Sat 08:30:48 AM 30.5330 103.9430 23° Northeast 131 151 1,600  Level FlightAware ADS-B

Login

Don't have an account? Register now (free) for customized features, flight alerts, and more!